createdAt,value
2023-06-04T00:03:00.235Z,5.90
2023-06-04T00:08:03.858Z,3.30
2023-06-04T00:13:07.392Z,6.10
2023-06-04T00:18:12.475Z,5.10
2023-06-04T00:23:15.966Z,4.60
2023-06-04T00:28:19.038Z,3.40
2023-06-04T00:33:22.148Z,4.10
2023-06-04T00:38:25.157Z,3.70
2023-06-04T00:43:28.885Z,2.70
2023-06-04T00:48:32.139Z,4.10
2023-06-04T00:53:35.201Z,3.60
2023-06-04T00:58:41.508Z,4.00
2023-06-04T01:03:48.981Z,2.30
2023-06-04T01:08:55.728Z,4.00
2023-06-04T01:13:59.112Z,7.50
2023-06-04T01:19:06.106Z,5.90
2023-06-04T01:24:09.624Z,4.10
2023-06-04T01:29:12.633Z,3.50
2023-06-04T01:34:16.255Z,6.20
2023-06-04T01:39:19.570Z,4.70
2023-06-04T01:44:22.580Z,7.80
2023-06-04T01:49:25.692Z,4.60
2023-06-04T01:54:28.998Z,3.90
2023-06-04T01:59:33.336Z,4.30
2023-06-04T02:04:37.906Z,4.60
2023-06-04T02:09:41.501Z,4.20
2023-06-04T02:14:46.572Z,5.10
2023-06-04T02:19:52.430Z,5.90
2023-06-04T02:24:55.554Z,8.10
2023-06-04T02:29:58.547Z,9.20
2023-06-04T02:35:01.863Z,3.90
2023-06-04T02:40:05.985Z,3.70
2023-06-04T02:45:11.459Z,5.40
2023-06-04T02:50:16.555Z,3.30
2023-06-04T02:55:19.628Z,4.20
2023-06-04T03:00:22.768Z,3.70
2023-06-04T03:05:28.090Z,4.00
2023-06-04T03:10:32.507Z,4.10
2023-06-04T03:15:35.774Z,2.90
2023-06-04T03:20:40.290Z,4.90
2023-06-04T03:25:43.407Z,6.00
2023-06-04T03:30:46.507Z,7.60
2023-06-04T03:35:49.730Z,5.80
2023-06-04T03:40:54.049Z,4.80
2023-06-04T03:45:57.288Z,4.50
2023-06-04T03:51:00.213Z,3.50
2023-06-04T03:56:03.287Z,5.00
2023-06-04T04:01:06.777Z,2.50
2023-06-04T04:06:11.901Z,5.50
2023-06-04T04:11:16.619Z,2.70
2023-06-04T04:16:19.746Z,4.90
2023-06-04T04:21:22.922Z,3.50
2023-06-04T04:26:29.005Z,5.30
2023-06-04T04:31:32.279Z,2.70
2023-06-04T04:36:37.889Z,3.00
2023-06-04T04:41:41.302Z,3.70
2023-06-04T04:46:44.736Z,3.10
2023-06-04T04:51:48.542Z,2.90
2023-06-04T04:56:58.583Z,3.60
2023-06-04T05:02:14.683Z,4.40
2023-06-04T05:07:17.745Z,4.00
2023-06-04T05:12:20.942Z,2.40
2023-06-04T05:17:31.786Z,2.50
2023-06-04T05:22:35.049Z,3.20
2023-06-04T05:27:39.590Z,4.80
2023-06-04T05:32:42.625Z,3.20
2023-06-04T05:37:47.045Z,5.30
2023-06-04T05:42:50.774Z,3.50
2023-06-04T05:47:56.151Z,2.80
2023-06-04T05:52:59.641Z,4.70
2023-06-04T05:58:02.655Z,3.20
2023-06-04T06:03:07.875Z,2.40
2023-06-04T06:08:11.579Z,2.60
2023-06-04T06:13:14.654Z,1.80
2023-06-04T06:18:17.755Z,2.00
2023-06-04T06:23:23.155Z,1.80
2023-06-04T06:28:26.422Z,2.40
2023-06-04T06:33:29.437Z,2.40
2023-06-04T06:38:33.151Z,2.50
2023-06-04T06:43:36.265Z,2.00
2023-06-04T06:48:39.222Z,2.30
2023-06-04T06:53:43.283Z,1.70
2023-06-04T06:58:47.368Z,2.30
2023-06-04T07:03:50.342Z,1.70
2023-06-04T07:08:53.756Z,1.80
2023-06-04T07:13:56.778Z,2.90
2023-06-04T07:18:59.966Z,1.70
2023-06-04T07:24:03.130Z,2.20
2023-06-04T07:29:06.918Z,2.70
2023-06-04T07:34:09.963Z,3.00
2023-06-04T07:39:12.921Z,1.40
2023-06-04T07:44:16.031Z,1.30
2023-06-04T07:49:19.075Z,1.70
2023-06-04T07:54:22.049Z,2.00
2023-06-04T07:59:25.295Z,2.50
2023-06-04T08:04:28.372Z,1.40
2023-06-04T08:09:32.103Z,2.80
2023-06-04T08:14:35.096Z,2.00
2023-06-04T08:19:38.368Z,3.00
2023-06-04T08:24:41.797Z,3.10
2023-06-04T08:29:44.723Z,2.70
2023-06-04T08:34:47.841Z,2.80
2023-06-04T08:39:50.705Z,2.60
2023-06-04T08:44:56.928Z,3.00
2023-06-04T08:50:03.642Z,1.60
2023-06-04T08:55:10.032Z,1.50
2023-06-04T09:00:14.202Z,1.60
2023-06-04T09:05:23.985Z,1.40
2023-06-04T09:10:27.862Z,3.80
2023-06-04T09:15:30.943Z,1.80
2023-06-04T09:20:34.257Z,1.50
2023-06-04T09:25:43.938Z,2.10
2023-06-04T09:30:56.478Z,2.40
2023-06-04T09:36:00.480Z,2.10
2023-06-04T09:41:07.780Z,2.10
2023-06-04T09:46:20.152Z,1.90
2023-06-04T09:51:23.225Z,1.40
2023-06-04T09:56:27.936Z,1.30
2023-06-04T10:01:31.440Z,1.50
2023-06-04T10:06:36.149Z,2.90
2023-06-04T10:11:44.974Z,1.30
2023-06-04T10:16:49.930Z,1.50
2023-06-04T10:21:54.171Z,2.90
2023-06-04T10:27:00.392Z,2.10
2023-06-04T10:32:04.132Z,1.30
2023-06-04T10:37:07.283Z,1.60
2023-06-04T10:42:10.468Z,1.60
2023-06-04T10:47:28.250Z,1.40
2023-06-04T10:52:31.571Z,2.00
2023-06-04T10:57:34.577Z,2.10
2023-06-04T11:02:39.574Z,1.70
2023-06-04T11:07:51.157Z,1.50
2023-06-04T11:12:54.391Z,1.70
2023-06-04T11:18:00.579Z,1.30
2023-06-04T11:23:04.915Z,1.30
2023-06-04T11:28:08.169Z,1.30
2023-06-04T11:33:11.412Z,1.90
2023-06-04T11:38:14.505Z,2.60
2023-06-04T11:43:17.604Z,1.70
2023-06-04T11:48:21.617Z,5.90
2023-06-04T11:53:25.359Z,2.60
2023-06-04T11:58:28.889Z,4.70
2023-06-04T12:03:38.315Z,1.50
2023-06-04T12:08:47.797Z,2.30
2023-06-04T12:13:50.799Z,4.70
2023-06-04T12:19:09.133Z,2.40
2023-06-04T12:24:13.196Z,2.60
2023-06-04T12:29:17.842Z,3.70
2023-06-04T12:39:24.065Z,1.40
2023-06-04T12:44:27.581Z,1.90
2023-06-04T12:49:30.689Z,3.80
2023-06-04T12:54:34.105Z,2.10
2023-06-04T12:59:37.334Z,1.80
2023-06-04T13:04:40.324Z,1.40
2023-06-04T13:09:43.643Z,1.50
2023-06-04T13:14:46.746Z,3.80
2023-06-04T13:19:49.821Z,2.70
2023-06-04T13:24:53.377Z,3.90
2023-06-04T13:29:56.406Z,2.00
2023-06-04T13:34:59.594Z,2.10
2023-06-04T13:40:03.212Z,1.40
2023-06-04T13:45:07.217Z,1.60
2023-06-04T13:50:11.674Z,2.30
2023-06-04T13:55:15.003Z,2.40
2023-06-04T14:00:18.054Z,2.10
2023-06-04T14:05:21.215Z,2.50
2023-06-04T14:10:24.225Z,1.60
2023-06-04T14:15:27.646Z,3.50
2023-06-04T14:20:31.793Z,1.40
2023-06-04T14:25:37.791Z,2.00
2023-06-04T14:30:40.963Z,2.70
2023-06-04T14:35:48.177Z,2.30
2023-06-04T14:40:51.483Z,4.80
2023-06-04T14:45:54.486Z,1.50
2023-06-04T14:50:57.503Z,1.70
2023-06-04T14:56:00.727Z,2.10
2023-06-04T15:01:05.174Z,1.60
2023-06-04T15:06:18.782Z,2.30
2023-06-04T15:11:23.248Z,3.10
2023-06-04T15:16:26.445Z,2.00
2023-06-04T15:21:29.773Z,1.50
2023-06-04T15:26:33.189Z,2.00
2023-06-04T15:31:36.305Z,3.70
2023-06-04T15:36:39.918Z,1.80
2023-06-04T15:41:43.030Z,2.60
2023-06-04T15:46:46.139Z,1.90
2023-06-04T15:51:49.146Z,1.50
2023-06-04T15:56:52.464Z,3.40
2023-06-04T16:01:55.518Z,1.40
2023-06-04T16:06:58.577Z,3.20
2023-06-04T16:12:01.798Z,2.50
2023-06-04T16:17:05.108Z,3.00
2023-06-04T16:22:08.106Z,3.50
2023-06-04T16:27:12.040Z,2.00
2023-06-04T16:32:15.043Z,3.20
2023-06-04T16:37:18.046Z,1.50
2023-06-04T16:42:21.158Z,1.60
2023-06-04T16:47:25.251Z,1.90
2023-06-04T16:52:28.452Z,3.60
2023-06-04T16:57:32.945Z,1.70
2023-06-04T17:02:36.346Z,1.50
2023-06-04T17:07:39.596Z,1.60
2023-06-04T17:12:42.887Z,2.50
2023-06-04T17:17:49.215Z,5.60
2023-06-04T17:22:54.018Z,2.70
2023-06-04T17:27:57.552Z,1.70
2023-06-04T17:33:00.888Z,2.30
2023-06-04T17:38:04.062Z,2.40
2023-06-04T17:43:07.116Z,5.00
2023-06-04T17:48:10.211Z,3.90
2023-06-04T17:53:13.299Z,2.30
2023-06-04T17:58:17.425Z,1.50
2023-06-04T18:03:20.630Z,3.10
2023-06-04T18:08:23.849Z,2.80
2023-06-04T18:13:27.158Z,2.70
2023-06-04T18:18:30.168Z,3.20
2023-06-04T18:23:33.350Z,4.20
2023-06-04T18:28:36.485Z,3.70
2023-06-04T18:33:53.618Z,4.50
2023-06-04T18:38:56.738Z,4.10
2023-06-04T18:43:59.861Z,6.00
2023-06-04T18:49:03.986Z,5.60
2023-06-04T18:54:08.165Z,7.10
2023-06-04T18:59:16.139Z,8.00
2023-06-04T19:04:19.334Z,10.70
2023-06-04T19:09:22.556Z,6.10
2023-06-04T19:14:26.231Z,9.80
2023-06-04T19:19:29.387Z,6.80
2023-06-04T19:24:33.317Z,6.90
2023-06-04T19:29:36.424Z,8.70
2023-06-04T19:34:39.747Z,11.30
2023-06-04T19:39:42.854Z,8.40
2023-06-04T19:44:45.859Z,8.80
2023-06-04T19:49:48.964Z,10.00
2023-06-04T19:54:52.080Z,6.80
2023-06-04T19:59:55.195Z,5.30
2023-06-04T20:04:59.241Z,4.20
2023-06-04T20:10:06.001Z,6.20
2023-06-04T20:15:09.963Z,2.50
2023-06-04T20:20:13.148Z,4.20
2023-06-04T20:25:16.458Z,4.50
2023-06-04T20:30:19.581Z,2.90
2023-06-04T20:35:22.687Z,2.60
2023-06-04T20:40:26.107Z,4.20
2023-06-04T20:45:29.211Z,2.10
2023-06-04T20:50:32.316Z,2.10
2023-06-04T20:55:36.512Z,3.50
2023-06-04T21:00:39.674Z,1.70
2023-06-04T21:05:42.980Z,3.20
2023-06-04T21:10:46.288Z,2.10
2023-06-04T21:15:49.333Z,5.10
2023-06-04T21:20:53.587Z,4.00
2023-06-04T21:25:56.599Z,2.70
2023-06-04T21:30:59.754Z,2.10
2023-06-04T21:36:03.478Z,5.00
2023-06-04T21:41:06.630Z,3.30
2023-06-04T21:46:10.094Z,6.60
2023-06-04T21:51:13.221Z,2.40
2023-06-04T21:56:16.434Z,2.30
2023-06-04T22:01:20.900Z,2.50
2023-06-04T22:06:24.505Z,1.90
2023-06-04T22:11:27.595Z,2.10
2023-06-04T22:16:30.672Z,3.60
2023-06-04T22:21:33.827Z,2.20
2023-06-04T22:26:38.334Z,5.80
2023-06-04T22:31:42.259Z,1.80
2023-06-04T22:36:46.379Z,2.00
2023-06-04T22:41:49.407Z,4.00
2023-06-04T22:46:52.519Z,3.20
2023-06-04T22:51:55.791Z,3.70
2023-06-04T22:56:58.978Z,3.70
2023-06-04T23:02:02.313Z,3.10
2023-06-04T23:07:06.126Z,3.40
2023-06-04T23:12:10.233Z,2.80
2023-06-04T23:17:13.468Z,5.90
2023-06-04T23:22:16.756Z,2.80
2023-06-04T23:27:19.881Z,2.50
2023-06-04T23:32:23.437Z,3.70
2023-06-04T23:37:27.203Z,3.40
2023-06-04T23:42:30.324Z,2.70
2023-06-04T23:47:33.373Z,5.00
2023-06-04T23:52:36.545Z,2.60
2023-06-04T23:57:39.546Z,2.70
